createdAt,value
2023-03-22T00:02:38.991Z,100037.38
2023-03-22T00:05:40.624Z,100035.50
2023-03-22T00:08:42.819Z,100029.25
2023-03-22T00:11:44.298Z,100031.28
2023-03-22T00:14:46.468Z,100030.44
2023-03-22T00:17:50.200Z,100032.09
2023-03-22T00:20:54.265Z,100023.97
2023-03-22T00:23:55.821Z,100022.28
2023-03-22T00:26:58.543Z,100025.00
2023-03-22T00:30:00.200Z,100020.41
2023-03-22T00:33:01.772Z,100012.63
2023-03-22T00:36:06.746Z,100009.75
2023-03-22T00:39:08.665Z,100013.66
2023-03-22T00:42:10.767Z,100010.94
2023-03-22T00:45:13.219Z,100008.22
2023-03-22T00:48:14.873Z,99996.50
2023-03-22T00:51:16.868Z,99987.53
2023-03-22T00:54:18.871Z,99994.81
2023-03-22T00:57:20.592Z,99987.72
2023-03-22T01:00:22.376Z,99981.41
2023-03-22T01:03:24.648Z,99977.03
2023-03-22T01:06:27.138Z,99983.28
2023-03-22T01:09:30.891Z,99975.16
2023-03-22T01:12:32.385Z,99974.47
2023-03-22T01:15:34.242Z,99972.63
2023-03-22T01:18:36.369Z,99971.75
2023-03-22T01:21:37.999Z,99964.66
2023-03-22T01:24:40.035Z,99968.38
2023-03-22T01:27:41.567Z,99962.97
2023-03-22T01:30:43.282Z,99954.81
2023-03-22T01:33:45.008Z,99956.66
2023-03-22T01:36:46.516Z,99955.00
2023-03-22T01:39:48.075Z,99955.00
2023-03-22T01:42:53.062Z,99949.56
2023-03-22T01:45:56.429Z,99945.16
2023-03-22T01:49:04.927Z,99944.28
2023-03-22T01:52:12.447Z,99940.75
2023-03-22T01:55:34.860Z,99938.22
2023-03-22T01:58:46.783Z,99938.22
2023-03-22T02:01:52.546Z,99924.81
2023-03-22T02:04:57.972Z,99930.25
2023-03-22T02:08:03.047Z,99915.00
2023-03-22T02:11:17.529Z,99912.94
2023-03-22T02:14:33.184Z,99916.69
2023-03-22T02:18:06.669Z,99921.25
2023-03-22T02:21:14.860Z,99916.19
2023-03-22T02:24:55.427Z,99912.28
2023-03-22T02:28:18.741Z,99914.13
2023-03-22T02:31:40.670Z,99907.03
2023-03-22T02:35:17.014Z,99900.75
2023-03-22T02:38:45.553Z,99903.47
2023-03-22T02:42:21.569Z,99909.91
2023-03-22T02:46:18.319Z,99902.78
2023-03-22T02:49:19.829Z,99906.66
2023-03-22T02:52:40.521Z,99909.22
2023-03-22T02:55:51.207Z,99910.22
2023-03-22T02:58:59.584Z,99905.63
2023-03-22T03:02:03.739Z,99904.78
2023-03-22T03:05:05.765Z,99901.25
2023-03-22T03:08:12.267Z,99902.91
2023-03-22T03:11:15.607Z,99895.97
2023-03-22T03:14:26.379Z,99889.56
2023-03-22T03:17:45.045Z,99890.56
2023-03-22T03:21:02.245Z,99892.25
2023-03-22T03:24:22.781Z,99886.00
2023-03-22T03:27:33.302Z,99896.16
2023-03-22T03:30:43.199Z,99894.28
2023-03-22T03:33:56.026Z,99887.19
2023-03-22T03:37:04.913Z,99893.63
2023-03-22T03:40:12.744Z,99879.22
2023-03-22T03:43:15.940Z,99875.66
2023-03-22T03:46:17.621Z,99871.25
2023-03-22T03:49:21.939Z,99872.09
2023-03-22T03:52:26.109Z,99874.81
2023-03-22T03:55:28.860Z,99871.06
2023-03-22T03:58:30.631Z,99867.53
2023-03-22T04:01:32.217Z,99862.09
2023-03-22T04:04:44.274Z,99861.06
2023-03-22T04:07:45.987Z,99857.53
2023-03-22T04:10:51.819Z,99849.22
2023-03-22T04:13:54.824Z,99856.31
2023-03-22T04:16:58.158Z,99852.59
2023-03-22T04:20:05.370Z,99857.84
2023-03-22T04:23:10.953Z,99858.56
2023-03-22T04:26:13.423Z,99854.66
2023-03-22T04:29:26.682Z,99856.34
2023-03-22T04:32:33.963Z,99849.91
2023-03-22T04:35:35.627Z,99851.44
2023-03-22T04:38:39.396Z,99850.38
2023-03-22T04:41:43.691Z,99846.31
2023-03-22T04:44:45.584Z,99844.25
2023-03-22T04:47:47.686Z,99841.38
2023-03-22T04:50:53.216Z,99843.75
2023-03-22T04:53:58.466Z,99853.41
2023-03-22T04:57:00.939Z,99848.81
2023-03-22T05:00:08.397Z,99847.63
2023-03-22T05:03:10.352Z,99836.75
2023-03-22T05:06:15.867Z,99835.75
2023-03-22T05:09:29.937Z,99842.03
2023-03-22T05:12:32.561Z,99847.28
2023-03-22T05:15:49.502Z,99843.69
2023-03-22T05:18:54.424Z,99849.13
2023-03-22T05:21:58.244Z,99840.16
2023-03-22T05:25:11.608Z,99833.72
2023-03-22T05:28:22.194Z,99837.44
2023-03-22T05:31:34.423Z,99836.59
2023-03-22T05:34:37.225Z,99836.59
2023-03-22T05:37:58.901Z,99833.88
2023-03-22T05:41:03.249Z,99841.19
2023-03-22T05:44:07.408Z,99832.22
2023-03-22T05:47:12.374Z,99833.22
2023-03-22T05:50:24.183Z,99834.03
2023-03-22T05:53:26.064Z,99836.97
2023-03-22T05:56:35.172Z,99834.25
2023-03-22T05:59:41.182Z,99835.09
2023-03-22T06:02:48.530Z,99822.34
2023-03-22T06:05:50.850Z,99816.09
2023-03-22T06:09:06.979Z,99814.22
2023-03-22T06:12:17.068Z,99810.50
2023-03-22T06:15:23.579Z,99813.84
2023-03-22T06:18:33.967Z,99815.56
2023-03-22T06:21:43.721Z,99804.72
2023-03-22T06:24:50.829Z,99811.81
2023-03-22T06:28:01.849Z,99813.53
2023-03-22T06:31:08.624Z,99813.34
2023-03-22T06:34:36.276Z,99811.66
2023-03-22T06:37:37.830Z,99815.03
2023-03-22T06:40:39.904Z,99818.59
2023-03-22T06:43:41.643Z,99813.16
2023-03-22T06:46:57.895Z,99812.97
2023-03-22T06:50:22.676Z,99799.41
2023-03-22T06:53:35.490Z,99810.09
2023-03-22T06:56:38.271Z,99798.41
2023-03-22T06:59:40.681Z,99796.53
2023-03-22T07:02:42.151Z,99810.09
2023-03-22T07:06:08.449Z,99807.38
2023-03-22T07:09:12.797Z,99801.13
2023-03-22T07:12:14.487Z,99796.69
2023-03-22T07:15:17.450Z,99802.13
2023-03-22T07:18:45.069Z,99804.84
2023-03-22T07:21:46.684Z,99805.88
2023-03-22T07:24:56.933Z,99804.84
2023-03-22T07:28:01.196Z,99802.31
2023-03-22T07:31:06.926Z,99788.56
2023-03-22T07:34:20.829Z,99786.03
2023-03-22T07:37:35.739Z,99797.72
2023-03-22T07:40:41.996Z,99791.47
2023-03-22T07:43:55.237Z,99788.75
2023-03-22T07:46:58.461Z,99773.47
2023-03-22T07:50:06.799Z,99788.75
2023-03-22T07:53:09.417Z,99785.19
2023-03-22T07:56:10.975Z,99783.50
2023-03-22T07:59:13.358Z,99785.38
2023-03-22T08:02:16.021Z,99784.53
2023-03-22T08:05:22.592Z,99780.78
2023-03-22T08:08:31.311Z,99783.69
2023-03-22T08:11:33.478Z,99782.66
2023-03-22T08:14:37.114Z,99774.66
2023-03-22T08:17:42.965Z,99764.69
2023-03-22T08:20:58.739Z,99766.38
2023-03-22T08:24:03.926Z,99756.56
2023-03-22T08:27:34.477Z,99750.25
2023-03-22T08:30:36.519Z,99749.41
2023-03-22T08:33:38.583Z,99744.00
2023-03-22T08:36:40.846Z,99742.13
2023-03-22T08:39:43.747Z,99725.84
2023-03-22T08:43:11.253Z,99724.16
2023-03-22T08:46:12.984Z,99727.72
2023-03-22T08:49:16.612Z,99728.75
2023-03-22T08:52:27.020Z,99725.00
2023-03-22T08:55:37.453Z,99728.75
2023-03-22T08:58:47.692Z,99718.91
2023-03-22T09:02:01.975Z,99724.16
2023-03-22T09:05:04.158Z,99721.44
2023-03-22T09:08:06.901Z,99716.00
2023-03-22T09:11:17.912Z,99711.44
2023-03-22T09:14:21.298Z,99707.72
2023-03-22T09:17:23.385Z,99696.84
2023-03-22T09:20:25.880Z,99698.69
2023-03-22T09:23:28.961Z,99686.00
2023-03-22T09:26:30.597Z,99688.72
2023-03-22T09:29:32.428Z,99669.72
2023-03-22T09:32:40.264Z,99667.84
2023-03-22T09:35:43.216Z,99687.50
2023-03-22T09:38:48.096Z,99679.19
2023-03-22T09:41:54.903Z,99679.00
2023-03-22T09:44:57.977Z,99673.59
2023-03-22T09:48:06.934Z,99681.53
2023-03-22T09:51:28.836Z,99667.97
2023-03-22T09:54:37.428Z,99662.53
2023-03-22T09:57:39.669Z,99658.97
2023-03-22T10:01:08.206Z,99665.91
2023-03-22T10:04:12.367Z,99649.84
2023-03-22T10:07:22.575Z,99647.13
2023-03-22T10:10:25.129Z,99653.19
2023-03-22T10:13:58.925Z,99649.47
2023-03-22T10:17:05.674Z,99645.72
2023-03-22T10:20:18.220Z,99647.41
2023-03-22T10:23:50.801Z,99647.41
2023-03-22T10:26:53.317Z,99648.25
2023-03-22T10:30:10.157Z,99641.78
2023-03-22T10:33:22.544Z,99630.94
2023-03-22T10:36:30.972Z,99644.50
2023-03-22T10:39:46.366Z,99644.50
2023-03-22T10:42:54.501Z,99633.66
2023-03-22T10:45:58.153Z,99642.28
2023-03-22T10:49:01.462Z,99654.81
2023-03-22T10:52:21.246Z,99650.91
2023-03-22T10:55:24.297Z,99659.22
2023-03-22T10:58:34.087Z,99642.94
2023-03-22T11:01:43.841Z,99636.84
2023-03-22T11:04:53.837Z,99631.22
2023-03-22T11:07:58.351Z,99625.13
2023-03-22T11:11:00.275Z,99624.66
2023-03-22T11:14:07.208Z,99631.13
2023-03-22T11:17:14.029Z,99628.75
2023-03-22T11:20:17.876Z,99630.84
2023-03-22T11:23:21.552Z,99639.31
2023-03-22T11:26:35.672Z,99634.25
2023-03-22T11:29:49.270Z,99635.47
2023-03-22T11:33:15.558Z,99635.09
2023-03-22T11:36:19.042Z,99640.34
2023-03-22T11:39:22.194Z,99633.72
2023-03-22T11:42:23.729Z,99641.50
2023-03-22T11:45:30.908Z,99644.88
2023-03-22T11:48:34.618Z,99662.28
2023-03-22T11:51:38.968Z,99646.69
2023-03-22T11:54:42.290Z,99651.94
2023-03-22T11:57:44.013Z,99654.44
2023-03-22T12:00:46.469Z,99645.31
2023-03-22T12:03:54.511Z,99637.78
2023-03-22T12:06:59.802Z,99630.16
2023-03-22T12:10:10.842Z,99638.09
2023-03-22T12:13:21.292Z,99642.31
2023-03-22T12:16:28.147Z,99645.03
2023-03-22T12:19:36.925Z,99645.69
2023-03-22T12:22:43.189Z,99641.97
2023-03-22T12:25:51.299Z,99638.22
2023-03-22T12:29:01.415Z,99634.47
2023-03-22T12:32:09.736Z,99642.44
2023-03-22T12:35:24.034Z,99633.25
2023-03-22T12:38:42.994Z,99635.13
2023-03-22T12:41:47.965Z,99639.56
2023-03-22T12:45:04.202Z,99636.84
2023-03-22T12:48:18.915Z,99628.50
2023-03-22T12:51:20.816Z,99626.81
2023-03-22T12:54:25.356Z,99622.88
2023-03-22T12:57:27.292Z,99615.75
2023-03-22T13:00:38.279Z,99608.47
2023-03-22T13:03:47.199Z,99606.41
2023-03-22T13:07:07.994Z,99598.06
2023-03-22T13:10:31.768Z,99590.78
2023-03-22T13:13:41.719Z,99588.06
2023-03-22T13:16:52.955Z,99598.91
2023-03-22T13:20:07.945Z,99589.75
2023-03-22T13:23:24.459Z,99581.63
2023-03-22T13:26:45.947Z,99589.56
2023-03-22T13:29:53.958Z,99580.56
2023-03-22T13:33:14.845Z,99579.53
2023-03-22T13:36:25.461Z,99578.53
2023-03-22T13:39:34.590Z,99571.03
2023-03-22T13:42:39.069Z,99574.75
2023-03-22T13:45:58.322Z,99571.22
2023-03-22T13:49:01.028Z,99581.41
2023-03-22T13:52:08.181Z,99579.53
2023-03-22T13:55:46.787Z,99591.25
2023-03-22T13:58:52.933Z,99593.09
2023-03-22T14:01:57.413Z,99597.69
2023-03-22T14:05:07.903Z,99601.91
2023-03-22T14:08:20.362Z,99609.06
2023-03-22T14:11:45.962Z,99602.59
2023-03-22T14:14:54.980Z,99604.25
2023-03-22T14:18:00.682Z,99604.25
2023-03-22T14:21:09.144Z,99601.53
